sensor_id;sensor_type;location;lat;lon;timestamp;temperature;humidity
41262;DHT22;29629;52.532;13.352;2022-10-30T00:02:10;16.00;99.90
41262;DHT22;29629;52.532;13.352;2022-10-30T00:04:47;16.00;99.90
41262;DHT22;29629;52.532;13.352;2022-10-30T00:07:14;15.90;99.90
41262;DHT22;29629;52.532;13.352;2022-10-30T00:09:41;15.90;99.90
41262;DHT22;29629;52.532;13.352;2022-10-30T00:12:08;15.90;99.90
41262;DHT22;29629;52.532;13.352;2022-10-30T00:14:37;15.90;99.90
41262;DHT22;29629;52.532;13.352;2022-10-30T00:17:04;15.90;99.90
41262;DHT22;29629;52.532;13.352;2022-10-30T00:19:33;15.90;99.90
41262;DHT22;29629;52.532;13.352;2022-10-30T00:22:01;15.80;99.90
41262;DHT22;29629;52.532;13.352;2022-10-30T00:24:28;15.80;99.90
41262;DHT22;29629;52.532;13.352;2022-10-30T00:26:55;15.80;99.90
41262;DHT22;29629;52.532;13.352;2022-10-30T00:29:22;15.80;99.90
41262;DHT22;29629;52.532;13.352;2022-10-30T00:31:51;15.80;99.90
41262;DHT22;29629;52.532;13.352;2022-10-30T00:34:18;15.70;99.90
41262;DHT22;29629;52.532;13.352;2022-10-30T00:36:45;15.70;99.90
41262;DHT22;29629;52.532;13.352;2022-10-30T00:39:13;15.70;99.90
41262;DHT22;29629;52.532;13.352;2022-10-30T00:41:39;15.70;99.90
41262;DHT22;29629;52.532;13.352;2022-10-30T00:44:31;15.80;99.90
41262;DHT22;29629;52.532;13.352;2022-10-30T00:47:03;15.70;99.90
41262;DHT22;29629;52.532;13.352;2022-10-30T00:49:31;15.70;99.90
41262;DHT22;29629;52.532;13.352;2022-10-30T00:52:00;15.70;99.90
41262;DHT22;29629;52.532;13.352;2022-10-30T00:54:29;15.70;99.90
41262;DHT22;29629;52.532;13.352;2022-10-30T00:56:55;15.70;99.90
41262;DHT22;29629;52.532;13.352;2022-10-30T00:59:28;15.70;99.90
41262;DHT22;29629;52.532;13.352;2022-10-30T01:01:56;15.70;99.90
41262;DHT22;29629;52.532;13.352;2022-10-30T01:04:24;15.70;99.90
41262;DHT22;29629;52.532;13.352;2022-10-30T01:06:52;15.60;99.90
41262;DHT22;29629;52.532;13.352;2022-10-30T01:09:19;15.60;99.90
41262;DHT22;29629;52.532;13.352;2022-10-30T01:11:48;15.60;99.90
41262;DHT22;29629;52.532;13.352;2022-10-30T01:14:17;15.60;99.90
41262;DHT22;29629;52.532;13.352;2022-10-30T01:16:57;15.60;99.90
41262;DHT22;29629;52.532;13.352;2022-10-30T01:19:33;15.60;99.90
41262;DHT22;29629;52.532;13.352;2022-10-30T01:22:19;15.50;99.90
41262;DHT22;29629;52.532;13.352;2022-10-30T01:25:11;15.50;99.90
41262;DHT22;29629;52.532;13.352;2022-10-30T01:27:47;15.50;99.90
41262;DHT22;29629;52.532;13.352;2022-10-30T01:30:25;15.50;99.90
41262;DHT22;29629;52.532;13.352;2022-10-30T01:33:03;15.40;99.90
41262;DHT22;29629;52.532;13.352;2022-10-30T01:35:36;15.40;99.90
41262;DHT22;29629;52.532;13.352;2022-10-30T01:38:09;15.40;99.90
41262;DHT22;29629;52.532;13.352;2022-10-30T01:40:37;15.40;99.90
41262;DHT22;29629;52.532;13.352;2022-10-30T01:43:07;15.40;99.90
41262;DHT22;29629;52.532;13.352;2022-10-30T01:46:08;15.30;99.90
41262;DHT22;29629;52.532;13.352;2022-10-30T01:48:54;15.30;99.90
41262;DHT22;29629;52.532;13.352;2022-10-30T01:51:38;15.30;99.90
41262;DHT22;29629;52.532;13.352;2022-10-30T01:54:18;15.30;99.90
41262;DHT22;29629;52.532;13.352;2022-10-30T01:56:53;15.20;99.90
41262;DHT22;29629;52.532;13.352;2022-10-30T01:59:29;15.20;99.90
41262;DHT22;29629;52.532;13.352;2022-10-30T02:01:57;15.20;99.90
41262;DHT22;29629;52.532;13.352;2022-10-30T02:04:24;15.20;99.90
41262;DHT22;29629;52.532;13.352;2022-10-30T02:06:52;15.10;99.90
41262;DHT22;29629;52.532;13.352;2022-10-30T02:09:19;15.10;99.90
41262;DHT22;29629;52.532;13.352;2022-10-30T02:11:47;15.10;99.90
41262;DHT22;29629;52.532;13.352;2022-10-30T02:14:17;15.10;99.90
41262;DHT22;29629;52.532;13.352;2022-10-30T02:16:50;15.10;99.90
41262;DHT22;29629;52.532;13.352;2022-10-30T02:19:17;15.10;99.90
41262;DHT22;29629;52.532;13.352;2022-10-30T02:21:46;15.00;99.90
41262;DHT22;29629;52.532;13.352;2022-10-30T02:24:12;15.00;99.90
41262;DHT22;29629;52.532;13.352;2022-10-30T02:26:39;15.00;99.90
41262;DHT22;29629;52.532;13.352;2022-10-30T02:29:06;15.00;99.90
41262;DHT22;29629;52.532;13.352;2022-10-30T02:31:33;15.00;99.90
41262;DHT22;29629;52.532;13.352;2022-10-30T02:33:59;14.90;99.90
41262;DHT22;29629;52.532;13.352;2022-10-30T02:36:26;15.00;99.90
41262;DHT22;29629;52.532;13.352;2022-10-30T02:38:54;14.90;99.90
41262;DHT22;29629;52.532;13.352;2022-10-30T02:41:21;14.90;99.90
41262;DHT22;29629;52.532;13.352;2022-10-30T02:43:49;14.80;99.90
41262;DHT22;29629;52.532;13.352;2022-10-30T02:46:16;14.80;99.90
41262;DHT22;29629;52.532;13.352;2022-10-30T02:48:43;14.80;99.90
41262;DHT22;29629;52.532;13.352;2022-10-30T02:51:09;14.80;99.90
41262;DHT22;29629;52.532;13.352;2022-10-30T02:53:36;14.80;99.90
41262;DHT22;29629;52.532;13.352;2022-10-30T02:56:06;14.70;99.90
41262;DHT22;29629;52.532;13.352;2022-10-30T02:58:34;14.70;99.90
41262;DHT22;29629;52.532;13.352;2022-10-30T03:01:05;14.70;99.90
41262;DHT22;29629;52.532;13.352;2022-10-30T03:03:32;14.70;99.90
41262;DHT22;29629;52.532;13.352;2022-10-30T03:05:59;14.70;99.90
41262;DHT22;29629;52.532;13.352;2022-10-30T03:08:27;14.60;99.90
41262;DHT22;29629;52.532;13.352;2022-10-30T03:10:58;14.60;99.90
41262;DHT22;29629;52.532;13.352;2022-10-30T03:13:27;14.60;99.90
41262;DHT22;29629;52.532;13.352;2022-10-30T03:15:59;14.60;99.90
41262;DHT22;29629;52.532;13.352;2022-10-30T03:18:26;14.60;99.90
41262;DHT22;29629;52.532;13.352;2022-10-30T03:20:56;14.70;99.90
41262;DHT22;29629;52.532;13.352;2022-10-30T03:23:23;14.60;99.90
41262;DHT22;29629;52.532;13.352;2022-10-30T03:25:51;14.60;99.90
41262;DHT22;29629;52.532;13.352;2022-10-30T03:28:19;14.60;99.90
41262;DHT22;29629;52.532;13.352;2022-10-30T03:30:47;14.50;99.90
41262;DHT22;29629;52.532;13.352;2022-10-30T03:33:14;14.50;99.90
41262;DHT22;29629;52.532;13.352;2022-10-30T03:35:42;14.50;99.90
41262;DHT22;29629;52.532;13.352;2022-10-30T03:38:09;14.50;99.90
41262;DHT22;29629;52.532;13.352;2022-10-30T03:40:36;14.50;99.90
41262;DHT22;29629;52.532;13.352;2022-10-30T03:43:03;14.50;99.90
41262;DHT22;29629;52.532;13.352;2022-10-30T03:45:31;14.50;99.90
41262;DHT22;29629;52.532;13.352;2022-10-30T03:47:59;14.60;99.90
41262;DHT22;29629;52.532;13.352;2022-10-30T03:50:26;14.60;99.90
41262;DHT22;29629;52.532;13.352;2022-10-30T03:52:53;14.60;99.90
41262;DHT22;29629;52.532;13.352;2022-10-30T03:55:19;14.60;99.90
41262;DHT22;29629;52.532;13.352;2022-10-30T03:57:46;14.60;99.90
41262;DHT22;29629;52.532;13.352;2022-10-30T04:00:14;14.60;99.90
41262;DHT22;29629;52.532;13.352;2022-10-30T04:02:44;14.70;99.90
41262;DHT22;29629;52.532;13.352;2022-10-30T04:05:12;14.60;99.90
41262;DHT22;29629;52.532;13.352;2022-10-30T04:07:39;14.60;99.90
41262;DHT22;29629;52.532;13.352;2022-10-30T04:10:06;14.70;99.90
41262;DHT22;29629;52.532;13.352;2022-10-30T04:12:33;14.70;99.90
41262;DHT22;29629;52.532;13.352;2022-10-30T04:14:59;14.80;99.90
41262;DHT22;29629;52.532;13.352;2022-10-30T04:17:26;14.80;99.90
41262;DHT22;29629;52.532;13.352;2022-10-30T04:19:53;14.80;99.90
41262;DHT22;29629;52.532;13.352;2022-10-30T04:22:21;14.80;99.90
41262;DHT22;29629;52.532;13.352;2022-10-30T04:24:48;14.80;99.90
41262;DHT22;29629;52.532;13.352;2022-10-30T04:27:15;14.80;99.90
41262;DHT22;29629;52.532;13.352;2022-10-30T04:29:41;14.80;99.90
41262;DHT22;29629;52.532;13.352;2022-10-30T04:32:09;14.80;99.90
41262;DHT22;29629;52.532;13.352;2022-10-30T04:34:36;14.90;99.90
41262;DHT22;29629;52.532;13.352;2022-10-30T04:37:04;14.90;99.90
41262;DHT22;29629;52.532;13.352;2022-10-30T04:39:32;14.90;99.90
41262;DHT22;29629;52.532;13.352;2022-10-30T04:41:59;14.80;99.90
41262;DHT22;29629;52.532;13.352;2022-10-30T04:44:25;14.90;99.90
41262;DHT22;29629;52.532;13.352;2022-10-30T04:46:52;14.90;99.90
41262;DHT22;29629;52.532;13.352;2022-10-30T04:49:19;14.80;99.90
41262;DHT22;29629;52.532;13.352;2022-10-30T04:51:45;15.00;99.90
41262;DHT22;29629;52.532;13.352;2022-10-30T04:54:12;15.00;99.90
41262;DHT22;29629;52.532;13.352;2022-10-30T04:56:40;14.90;99.90
41262;DHT22;29629;52.532;13.352;2022-10-30T04:59:07;14.90;99.90
41262;DHT22;29629;52.532;13.352;2022-10-30T05:01:34;15.00;99.90
41262;DHT22;29629;52.532;13.352;2022-10-30T05:04:00;15.00;99.90
41262;DHT22;29629;52.532;13.352;2022-10-30T05:06:28;15.00;99.90
41262;DHT22;29629;52.532;13.352;2022-10-30T05:08:56;15.00;99.90
41262;DHT22;29629;52.532;13.352;2022-10-30T05:11:22;15.00;99.90
41262;DHT22;29629;52.532;13.352;2022-10-30T05:13:50;15.00;99.90
41262;DHT22;29629;52.532;13.352;2022-10-30T05:16:17;14.90;99.90
41262;DHT22;29629;52.532;13.352;2022-10-30T05:18:44;14.90;99.90
41262;DHT22;29629;52.532;13.352;2022-10-30T05:21:11;14.90;99.90
41262;DHT22;29629;52.532;13.352;2022-10-30T05:23:37;14.90;99.90
41262;DHT22;29629;52.532;13.352;2022-10-30T05:26:04;14.90;99.90
41262;DHT22;29629;52.532;13.352;2022-10-30T05:28:31;14.90;99.90
41262;DHT22;29629;52.532;13.352;2022-10-30T05:30:59;14.90;99.90
41262;DHT22;29629;52.532;13.352;2022-10-30T05:33:26;14.90;99.90
41262;DHT22;29629;52.532;13.352;2022-10-30T05:35:52;14.90;99.90
41262;DHT22;29629;52.532;13.352;2022-10-30T05:38:19;14.80;99.90
41262;DHT22;29629;52.532;13.352;2022-10-30T05:40:46;14.80;99.90
41262;DHT22;29629;52.532;13.352;2022-10-30T05:43:13;14.80;99.90
41262;DHT22;29629;52.532;13.352;2022-10-30T05:45:39;14.80;99.90
41262;DHT22;29629;52.532;13.352;2022-10-30T05:48:08;14.70;99.90
41262;DHT22;29629;52.532;13.352;2022-10-30T05:50:34;14.70;99.90
41262;DHT22;29629;52.532;13.352;2022-10-30T05:53:03;14.70;99.90
41262;DHT22;29629;52.532;13.352;2022-10-30T05:55:30;14.70;99.90
41262;DHT22;29629;52.532;13.352;2022-10-30T05:57:57;14.80;99.90
41262;DHT22;29629;52.532;13.352;2022-10-30T06:00:25;14.80;99.90
41262;DHT22;29629;52.532;13.352;2022-10-30T06:02:58;14.70;99.90
41262;DHT22;29629;52.532;13.352;2022-10-30T06:05:28;14.80;99.90
41262;DHT22;29629;52.532;13.352;2022-10-30T06:07:54;14.80;99.90
41262;DHT22;29629;52.532;13.352;2022-10-30T06:10:21;14.80;99.90
41262;DHT22;29629;52.532;13.352;2022-10-30T06:12:52;14.80;99.90
41262;DHT22;29629;52.532;13.352;2022-10-30T06:15:19;14.80;99.90
41262;DHT22;29629;52.532;13.352;2022-10-30T06:17:46;14.90;99.90
41262;DHT22;29629;52.532;13.352;2022-10-30T06:20:13;14.90;99.90
41262;DHT22;29629;52.532;13.352;2022-10-30T06:22:41;14.90;99.90
41262;DHT22;29629;52.532;13.352;2022-10-30T06:25:08;14.90;99.90
41262;DHT22;29629;52.532;13.352;2022-10-30T06:27:35;14.90;99.90
41262;DHT22;29629;52.532;13.352;2022-10-30T06:30:02;14.90;99.90
41262;DHT22;29629;52.532;13.352;2022-10-30T06:32:29;14.90;99.90
41262;DHT22;29629;52.532;13.352;2022-10-30T06:34:56;14.90;99.90
41262;DHT22;29629;52.532;13.352;2022-10-30T06:37:22;14.90;99.90
41262;DHT22;29629;52.532;13.352;2022-10-30T06:39:51;14.90;99.90
41262;DHT22;29629;52.532;13.352;2022-10-30T06:42:17;15.00;99.90
41262;DHT22;29629;52.532;13.352;2022-10-30T06:44:44;15.00;99.90
41262;DHT22;29629;52.532;13.352;2022-10-30T06:47:11;15.00;99.90
41262;DHT22;29629;52.532;13.352;2022-10-30T06:49:37;15.00;99.90
41262;DHT22;29629;52.532;13.352;2022-10-30T06:52:04;15.00;99.90
41262;DHT22;29629;52.532;13.352;2022-10-30T06:54:31;15.10;99.90
41262;DHT22;29629;52.532;13.352;2022-10-30T06:56:59;15.10;99.90
41262;DHT22;29629;52.532;13.352;2022-10-30T06:59:26;15.10;99.90
41262;DHT22;29629;52.532;13.352;2022-10-30T07:01:53;15.10;99.90
41262;DHT22;29629;52.532;13.352;2022-10-30T07:04:20;15.10;99.90
41262;DHT22;29629;52.532;13.352;2022-10-30T07:06:47;15.10;99.90
41262;DHT22;29629;52.532;13.352;2022-10-30T07:09:14;15.10;99.90
41262;DHT22;29629;52.532;13.352;2022-10-30T07:11:41;15.20;99.90
41262;DHT22;29629;52.532;13.352;2022-10-30T07:14:11;15.20;99.90
41262;DHT22;29629;52.532;13.352;2022-10-30T07:16:38;15.20;99.90
41262;DHT22;29629;52.532;13.352;2022-10-30T07:19:05;15.20;99.90
41262;DHT22;29629;52.532;13.352;2022-10-30T07:21:31;15.30;99.90
41262;DHT22;29629;52.532;13.352;2022-10-30T07:23:58;15.30;99.90
41262;DHT22;29629;52.532;13.352;2022-10-30T07:26:25;15.30;99.90
41262;DHT22;29629;52.532;13.352;2022-10-30T07:28:51;15.40;99.90
41262;DHT22;29629;52.532;13.352;2022-10-30T07:31:19;15.50;99.90
41262;DHT22;29629;52.532;13.352;2022-10-30T07:33:46;15.50;99.90
41262;DHT22;29629;52.532;13.352;2022-10-30T07:36:13;15.60;99.90
41262;DHT22;29629;52.532;13.352;2022-10-30T07:38:40;15.80;99.90
41262;DHT22;29629;52.532;13.352;2022-10-30T07:41:07;16.00;99.90
41262;DHT22;29629;52.532;13.352;2022-10-30T07:43:33;16.10;99.90
41262;DHT22;29629;52.532;13.352;2022-10-30T07:46:00;16.20;99.90
41262;DHT22;29629;52.532;13.352;2022-10-30T07:48:28;16.30;99.90
41262;DHT22;29629;52.532;13.352;2022-10-30T07:50:55;16.30;99.90
41262;DHT22;29629;52.532;13.352;2022-10-30T07:53:22;16.30;99.90
41262;DHT22;29629;52.532;13.352;2022-10-30T07:55:48;16.40;99.90
41262;DHT22;29629;52.532;13.352;2022-10-30T07:58:15;16.40;99.90
41262;DHT22;29629;52.532;13.352;2022-10-30T08:00:42;16.30;99.90
41262;DHT22;29629;52.532;13.352;2022-10-30T08:03:10;16.40;99.90
41262;DHT22;29629;52.532;13.352;2022-10-30T08:05:38;16.50;99.90
41262;DHT22;29629;52.532;13.352;2022-10-30T08:08:05;16.70;99.90
41262;DHT22;29629;52.532;13.352;2022-10-30T08:10:32;17.00;99.90
41262;DHT22;29629;52.532;13.352;2022-10-30T08:13:00;17.10;99.90
41262;DHT22;29629;52.532;13.352;2022-10-30T08:15:27;17.20;99.90
41262;DHT22;29629;52.532;13.352;2022-10-30T08:17:54;17.10;99.90
41262;DHT22;29629;52.532;13.352;2022-10-30T08:20:22;17.00;99.90
41262;DHT22;29629;52.532;13.352;2022-10-30T08:22:52;16.90;99.90
41262;DHT22;29629;52.532;13.352;2022-10-30T08:25:21;16.70;99.90
41262;DHT22;29629;52.532;13.352;2022-10-30T08:27:50;16.80;99.90
41262;DHT22;29629;52.532;13.352;2022-10-30T08:30:17;16.90;99.90
41262;DHT22;29629;52.532;13.352;2022-10-30T08:32:44;16.90;99.90
41262;DHT22;29629;52.532;13.352;2022-10-30T08:35:11;16.90;99.90
41262;DHT22;29629;52.532;13.352;2022-10-30T08:37:38;16.80;99.90
41262;DHT22;29629;52.532;13.352;2022-10-30T08:40:09;16.80;99.90
41262;DHT22;29629;52.532;13.352;2022-10-30T08:42:38;16.80;99.90
41262;DHT22;29629;52.532;13.352;2022-10-30T08:45:06;16.80;99.90
41262;DHT22;29629;52.532;13.352;2022-10-30T08:47:33;17.10;99.90
41262;DHT22;29629;52.532;13.352;2022-10-30T08:49:59;17.20;99.90
41262;DHT22;29629;52.532;13.352;2022-10-30T08:52:26;17.30;99.90
41262;DHT22;29629;52.532;13.352;2022-10-30T08:54:53;17.40;99.90
41262;DHT22;29629;52.532;13.352;2022-10-30T08:57:21;18.90;99.90
41262;DHT22;29629;52.532;13.352;2022-10-30T08:59:48;20.50;99.90
41262;DHT22;29629;52.532;13.352;2022-10-30T09:02:14;21.60;99.90
41262;DHT22;29629;52.532;13.352;2022-10-30T09:04:41;22.00;99.90
41262;DHT22;29629;52.532;13.352;2022-10-30T09:07:08;23.50;99.90
41262;DHT22;29629;52.532;13.352;2022-10-30T09:09:35;21.30;99.90
41262;DHT22;29629;52.532;13.352;2022-10-30T09:12:02;20.20;99.90
41262;DHT22;29629;52.532;13.352;2022-10-30T09:14:30;19.40;99.90
41262;DHT22;29629;52.532;13.352;2022-10-30T09:16:57;20.40;99.90
41262;DHT22;29629;52.532;13.352;2022-10-30T09:19:24;19.30;99.90
41262;DHT22;29629;52.532;13.352;2022-10-30T09:21:53;19.10;99.90
41262;DHT22;29629;52.532;13.352;2022-10-30T09:24:19;18.90;99.90
41262;DHT22;29629;52.532;13.352;2022-10-30T09:26:46;19.20;99.90
41262;DHT22;29629;52.532;13.352;2022-10-30T09:29:13;21.90;99.90
41262;DHT22;29629;52.532;13.352;2022-10-30T09:31:41;23.50;99.90
41262;DHT22;29629;52.532;13.352;2022-10-30T09:34:08;24.30;99.90
41262;DHT22;29629;52.532;13.352;2022-10-30T09:36:35;22.70;99.90
41262;DHT22;29629;52.532;13.352;2022-10-30T09:39:01;21.60;99.90
41262;DHT22;29629;52.532;13.352;2022-10-30T09:41:49;21.10;99.90
41262;DHT22;29629;52.532;13.352;2022-10-30T09:44:30;20.80;99.90
41262;DHT22;29629;52.532;13.352;2022-10-30T09:47:12;20.60;99.90
41262;DHT22;29629;52.532;13.352;2022-10-30T09:49:52;20.50;99.90
41262;DHT22;29629;52.532;13.352;2022-10-30T09:52:27;20.20;99.90
41262;DHT22;29629;52.532;13.352;2022-10-30T09:55:15;20.20;99.90
41262;DHT22;29629;52.532;13.352;2022-10-30T09:57:49;20.20;99.90
41262;DHT22;29629;52.532;13.352;2022-10-30T10:00:19;20.20;99.90
41262;DHT22;29629;52.532;13.352;2022-10-30T10:02:57;20.20;99.90
41262;DHT22;29629;52.532;13.352;2022-10-30T10:05:39;20.30;99.90
41262;DHT22;29629;52.532;13.352;2022-10-30T10:08:10;20.30;99.90
41262;DHT22;29629;52.532;13.352;2022-10-30T10:10:41;20.40;99.90
41262;DHT22;29629;52.532;13.352;2022-10-30T10:13:19;20.40;99.90
41262;DHT22;29629;52.532;13.352;2022-10-30T10:15:49;20.50;99.90
41262;DHT22;29629;52.532;13.352;2022-10-30T10:18:24;20.50;99.90
41262;DHT22;29629;52.532;13.352;2022-10-30T10:20:53;20.50;99.90
41262;DHT22;29629;52.532;13.352;2022-10-30T10:23:28;20.50;99.90
41262;DHT22;29629;52.532;13.352;2022-10-30T10:25:59;20.60;99.90
41262;DHT22;29629;52.532;13.352;2022-10-30T10:28:44;20.80;99.90
41262;DHT22;29629;52.532;13.352;2022-10-30T10:31:27;20.80;99.90
41262;DHT22;29629;52.532;13.352;2022-10-30T10:34:08;20.90;99.90
41262;DHT22;29629;52.532;13.352;2022-10-30T10:36:43;20.90;99.90
41262;DHT22;29629;52.532;13.352;2022-10-30T10:39:22;21.10;99.90
41262;DHT22;29629;52.532;13.352;2022-10-30T10:42:01;21.30;99.90
41262;DHT22;29629;52.532;13.352;2022-10-30T10:44:37;21.50;99.90
41262;DHT22;29629;52.532;13.352;2022-10-30T10:47:33;21.80;99.90
41262;DHT22;29629;52.532;13.352;2022-10-30T10:50:13;21.90;99.90
41262;DHT22;29629;52.532;13.352;2022-10-30T10:52:45;21.80;99.90
41262;DHT22;29629;52.532;13.352;2022-10-30T10:55:15;21.90;99.90
41262;DHT22;29629;52.532;13.352;2022-10-30T10:57:43;21.80;99.90
41262;DHT22;29629;52.532;13.352;2022-10-30T11:00:14;21.90;99.90
41262;DHT22;29629;52.532;13.352;2022-10-30T11:02:46;22.10;99.90
41262;DHT22;29629;52.532;13.352;2022-10-30T11:05:24;22.20;99.90
41262;DHT22;29629;52.532;13.352;2022-10-30T11:07:53;22.30;99.90
41262;DHT22;29629;52.532;13.352;2022-10-30T11:10:22;22.50;99.90
41262;DHT22;29629;52.532;13.352;2022-10-30T11:12:50;22.70;99.90
41262;DHT22;29629;52.532;13.352;2022-10-30T11:15:32;22.90;99.90
41262;DHT22;29629;52.532;13.352;2022-10-30T11:18:03;23.10;99.90
41262;DHT22;29629;52.532;13.352;2022-10-30T11:20:37;23.30;99.90
41262;DHT22;29629;52.532;13.352;2022-10-30T11:23:33;23.30;99.90
41262;DHT22;29629;52.532;13.352;2022-10-30T11:26:01;23.70;99.90
41262;DHT22;29629;52.532;13.352;2022-10-30T11:28:40;24.20;99.90
41262;DHT22;29629;52.532;13.352;2022-10-30T11:31:20;24.10;99.90
41262;DHT22;29629;52.532;13.352;2022-10-30T11:33:48;24.60;99.90
41262;DHT22;29629;52.532;13.352;2022-10-30T11:36:18;24.70;99.90
41262;DHT22;29629;52.532;13.352;2022-10-30T11:38:47;24.70;99.90
41262;DHT22;29629;52.532;13.352;2022-10-30T11:41:15;24.90;99.90
41262;DHT22;29629;52.532;13.352;2022-10-30T11:43:43;25.00;99.90
41262;DHT22;29629;52.532;13.352;2022-10-30T11:46:18;25.00;99.90
41262;DHT22;29629;52.532;13.352;2022-10-30T11:48:46;25.10;99.90
41262;DHT22;29629;52.532;13.352;2022-10-30T11:51:30;25.40;99.90
41262;DHT22;29629;52.532;13.352;2022-10-30T11:53:57;25.70;99.90
41262;DHT22;29629;52.532;13.352;2022-10-30T11:56:24;25.70;99.90
41262;DHT22;29629;52.532;13.352;2022-10-30T11:58:53;25.50;99.90
41262;DHT22;29629;52.532;13.352;2022-10-30T12:01:23;25.60;99.90
41262;DHT22;29629;52.532;13.352;2022-10-30T12:03:51;26.00;99.90
41262;DHT22;29629;52.532;13.352;2022-10-30T12:06:25;26.10;99.90
41262;DHT22;29629;52.532;13.352;2022-10-30T12:09:02;26.00;99.90
41262;DHT22;29629;52.532;13.352;2022-10-30T12:11:30;26.20;99.90
41262;DHT22;29629;52.532;13.352;2022-10-30T12:13:58;26.30;99.90
41262;DHT22;29629;52.532;13.352;2022-10-30T12:16:25;26.30;99.90
41262;DHT22;29629;52.532;13.352;2022-10-30T12:18:56;26.40;99.90
41262;DHT22;29629;52.532;13.352;2022-10-30T12:21:24;26.50;99.90
41262;DHT22;29629;52.532;13.352;2022-10-30T12:23:54;26.60;99.90
41262;DHT22;29629;52.532;13.352;2022-10-30T12:26:23;26.60;99.90
41262;DHT22;29629;52.532;13.352;2022-10-30T12:28:54;26.60;99.90
41262;DHT22;29629;52.532;13.352;2022-10-30T12:31:29;26.70;99.90
41262;DHT22;29629;52.532;13.352;2022-10-30T12:34:05;26.50;99.90
41262;DHT22;29629;52.532;13.352;2022-10-30T12:36:43;26.10;99.90
41262;DHT22;29629;52.532;13.352;2022-10-30T12:39:12;26.10;99.90
41262;DHT22;29629;52.532;13.352;2022-10-30T12:41:53;25.90;99.90
41262;DHT22;29629;52.532;13.352;2022-10-30T12:44:26;25.30;99.90
41262;DHT22;29629;52.532;13.352;2022-10-30T12:46:58;25.00;99.90
41262;DHT22;29629;52.532;13.352;2022-10-30T12:49:30;24.70;99.90
41262;DHT22;29629;52.532;13.352;2022-10-30T12:52:04;24.60;99.90
41262;DHT22;29629;52.532;13.352;2022-10-30T12:54:34;24.40;99.90
41262;DHT22;29629;52.532;13.352;2022-10-30T12:57:08;24.20;99.90
41262;DHT22;29629;52.532;13.352;2022-10-30T12:59:44;23.90;99.90
41262;DHT22;29629;52.532;13.352;2022-10-30T13:02:19;23.80;99.90
41262;DHT22;29629;52.532;13.352;2022-10-30T13:04:51;23.70;99.90
41262;DHT22;29629;52.532;13.352;2022-10-30T13:07:25;23.30;99.90
41262;DHT22;29629;52.532;13.352;2022-10-30T13:10:01;23.40;99.90
41262;DHT22;29629;52.532;13.352;2022-10-30T13:12:33;23.00;99.90
41262;DHT22;29629;52.532;13.352;2022-10-30T13:15:03;23.00;99.90
41262;DHT22;29629;52.532;13.352;2022-10-30T13:17:31;22.90;99.90
41262;DHT22;29629;52.532;13.352;2022-10-30T13:19:59;22.70;99.90
41262;DHT22;29629;52.532;13.352;2022-10-30T13:22:30;22.80;99.90
41262;DHT22;29629;52.532;13.352;2022-10-30T13:25:03;22.60;99.90
41262;DHT22;29629;52.532;13.352;2022-10-30T13:27:40;22.50;99.90
41262;DHT22;29629;52.532;13.352;2022-10-30T13:30:12;22.50;99.90
41262;DHT22;29629;52.532;13.352;2022-10-30T13:32:48;22.30;99.90
41262;DHT22;29629;52.532;13.352;2022-10-30T13:35:28;22.40;99.90
41262;DHT22;29629;52.532;13.352;2022-10-30T13:38:01;22.20;99.90
41262;DHT22;29629;52.532;13.352;2022-10-30T13:40:35;22.20;99.90
41262;DHT22;29629;52.532;13.352;2022-10-30T13:43:17;22.10;99.90
41262;DHT22;29629;52.532;13.352;2022-10-30T13:45:56;21.90;99.90
41262;DHT22;29629;52.532;13.352;2022-10-30T13:48:35;21.90;99.90
41262;DHT22;29629;52.532;13.352;2022-10-30T13:51:24;21.90;99.90
41262;DHT22;29629;52.532;13.352;2022-10-30T13:53:59;21.80;99.90
41262;DHT22;29629;52.532;13.352;2022-10-30T13:56:28;21.70;99.90
41262;DHT22;29629;52.532;13.352;2022-10-30T13:59:07;21.60;99.90
41262;DHT22;29629;52.532;13.352;2022-10-30T14:01:41;21.50;99.90
41262;DHT22;29629;52.532;13.352;2022-10-30T14:04:14;21.40;99.90
41262;DHT22;29629;52.532;13.352;2022-10-30T14:06:50;21.50;99.90
41262;DHT22;29629;52.532;13.352;2022-10-30T14:09:23;21.50;99.90
41262;DHT22;29629;52.532;13.352;2022-10-30T14:11:53;21.40;99.90
41262;DHT22;29629;52.532;13.352;2022-10-30T14:14:28;21.30;99.90
41262;DHT22;29629;52.532;13.352;2022-10-30T14:17:12;21.30;99.90
41262;DHT22;29629;52.532;13.352;2022-10-30T14:23:07;21.20;99.90
41262;DHT22;29629;52.532;13.352;2022-10-30T14:25:37;21.20;99.90
41262;DHT22;29629;52.532;13.352;2022-10-30T14:28:05;21.10;99.90
41262;DHT22;29629;52.532;13.352;2022-10-30T14:30:43;21.10;99.90
41262;DHT22;29629;52.532;13.352;2022-10-30T14:36:15;21.00;99.90
41262;DHT22;29629;52.532;13.352;2022-10-30T14:38:51;20.90;99.90
41262;DHT22;29629;52.532;13.352;2022-10-30T14:41:42;20.90;99.90
41262;DHT22;29629;52.532;13.352;2022-10-30T14:44:20;20.90;99.90
41262;DHT22;29629;52.532;13.352;2022-10-30T14:47:26;20.90;99.90
41262;DHT22;29629;52.532;13.352;2022-10-30T14:49:58;20.90;99.90
41262;DHT22;29629;52.532;13.352;2022-10-30T14:52:41;20.80;99.90
41262;DHT22;29629;52.532;13.352;2022-10-30T14:55:25;20.80;99.90
41262;DHT22;29629;52.532;13.352;2022-10-30T14:58:14;20.70;99.90
41262;DHT22;29629;52.532;13.352;2022-10-30T15:00:42;20.80;99.90
41262;DHT22;29629;52.532;13.352;2022-10-30T15:03:28;20.80;99.90
41262;DHT22;29629;52.532;13.352;2022-10-30T15:06:00;20.60;99.90
41262;DHT22;29629;52.532;13.352;2022-10-30T15:08:38;20.70;99.90
41262;DHT22;29629;52.532;13.352;2022-10-30T15:11:23;20.60;99.90
41262;DHT22;29629;52.532;13.352;2022-10-30T15:13:53;20.70;99.90
41262;DHT22;29629;52.532;13.352;2022-10-30T15:16:22;20.70;99.90
41262;DHT22;29629;52.532;13.352;2022-10-30T15:18:56;20.60;99.90
41262;DHT22;29629;52.532;13.352;2022-10-30T15:21:24;20.60;99.90
41262;DHT22;29629;52.532;13.352;2022-10-30T15:23:55;20.50;99.90
41262;DHT22;29629;52.532;13.352;2022-10-30T15:26:26;20.30;99.90
41262;DHT22;29629;52.532;13.352;2022-10-30T15:28:56;20.20;99.90
41262;DHT22;29629;52.532;13.352;2022-10-30T15:31:24;20.30;99.90
41262;DHT22;29629;52.532;13.352;2022-10-30T15:33:54;20.30;99.90
41262;DHT22;29629;52.532;13.352;2022-10-30T15:36:24;20.20;99.90
41262;DHT22;29629;52.532;13.352;2022-10-30T15:39:04;20.20;99.90
41262;DHT22;29629;52.532;13.352;2022-10-30T15:41:33;20.20;99.90
41262;DHT22;29629;52.532;13.352;2022-10-30T15:44:03;20.10;99.90